Time;durP1;ratioP1;P1;durP2;ratioP2;P2;SDS_P1;SDS_P2;PMS_P1;PMS_P2;Temp;Humidity;BMP_temperature;BMP_pressure;BME280_temperature;BME280_humidity;BME280_pressure;Samples;Min_cycle;Max_cycle;Signal;HPM_P1;HPM_P2
2021/06/02 00:00:43;;;;;;;10.07;7.40;;;;;;;14.57;49.98;100572.78;3595821;39;20047;-55
2021/06/02 00:03:14;;;;;;;9.65;6.90;;;;;;;14.51;50.04;100578.38;3596077;39;20058;-55
2021/06/02 00:05:41;;;;;;;;;;;;;;;14.48;49.29;100575.03;3596182;39;20121;-56
2021/06/02 00:08:09;;;;;;;13.50;6.63;;;;;;;14.40;49.74;100582.47;3596313;40;19944;-56
2021/06/02 00:10:36;;;;;;;9.98;6.50;;;;;;;14.25;50.19;100579.63;3595704;39;20028;-55
2021/06/02 00:13:03;;;;;;;13.15;7.05;;;;;;;14.19;50.22;100573.81;3595281;39;20059;-52
2021/06/02 00:15:30;;;;;;;14.18;7.30;;;;;;;14.13;50.40;100569.66;3595809;39;20039;-57
2021/06/02 00:18:00;;;;;;;12.10;6.57;;;;;;;14.06;50.74;100570.88;3596291;39;20072;-52
2021/06/02 00:20:29;;;;;;;9.23;6.55;;;;;;;14.02;50.57;100579.88;3595311;39;20250;-52
2021/06/02 00:22:56;;;;;;;12.15;7.43;;;;;;;13.99;50.52;100580.88;3596287;39;20029;-51
2021/06/02 00:25:24;;;;;;;10.05;6.85;;;;;;;13.98;50.40;100575.69;3595404;39;20425;-50
2021/06/02 00:27:57;;;;;;;9.50;6.18;;;;;;;13.93;50.49;100583.78;3595105;39;20043;-52
2021/06/02 00:30:24;;;;;;;9.45;7.35;;;;;;;13.92;50.59;100581.22;3595420;39;20587;-50
2021/06/02 00:33:06;;;;;;;12.43;6.75;;;;;;;13.94;50.35;100579.34;3595454;39;20040;-50
2021/06/02 00:35:34;;;;;;;9.68;6.78;;;;;;;13.94;50.49;100592.53;3595147;39;20043;-52
2021/06/02 00:38:04;;;;;;;9.88;6.63;;;;;;;13.92;50.54;100592.63;3595760;39;20043;-51
2021/06/02 00:40:37;;;;;;;10.02;6.22;;;;;;;13.87;50.29;100591.97;3594983;39;20406;-54
2021/06/02 00:43:05;;;;;;;12.38;6.43;;;;;;;13.87;50.78;100588.50;3595904;39;20036;-51
2021/06/02 00:45:33;;;;;;;8.85;6.35;;;;;;;13.84;50.97;100601.81;3595135;39;20093;-53
2021/06/02 00:48:02;;;;;;;12.52;6.65;;;;;;;13.80;50.98;100595.84;3595888;39;20036;-52
2021/06/02 00:50:30;;;;;;;11.07;6.40;;;;;;;13.80;50.75;100598.47;3595526;39;20295;-50
2021/06/02 00:52:58;;;;;;;8.38;6.18;;;;;;;13.80;50.77;100605.53;3596106;39;20040;-54
2021/06/02 00:55:25;;;;;;;12.65;5.90;;;;;;;13.78;50.74;100599.47;3595840;39;20028;-51
2021/06/02 00:57:55;;;;;;;14.15;5.80;;;;;;;13.77;50.66;100601.25;3595407;39;20043;-52
2021/06/02 01:00:25;;;;;;;10.68;5.78;;;;;;;13.75;50.68;100602.25;3595239;39;20095;-52
2021/06/02 01:02:53;;;;;;;10.18;5.70;;;;;;;13.75;50.47;100603.09;3595095;39;20036;-54
2021/06/02 01:05:23;;;;;;;9.63;6.30;;;;;;;13.76;50.58;100603.97;3595774;39;20058;-56
2021/06/02 01:07:52;;;;;;;9.73;5.90;;;;;;;13.72;50.36;100606.72;3595629;39;20080;-54
2021/06/02 01:10:20;;;;;;;7.88;6.00;;;;;;;13.69;50.74;100606.00;3594533;39;20136;-60
2021/06/02 01:12:51;;;;;;;9.90;5.90;;;;;;;13.65;50.46;100613.19;3594311;40;20067;-60
2021/06/02 01:15:20;;;;;;;9.55;5.68;;;;;;;13.61;50.57;100611.63;3594908;39;20039;-60
2021/06/02 01:17:47;;;;;;;9.60;6.40;;;;;;;13.60;50.58;100615.19;3594425;40;20040;-57
2021/06/02 01:20:16;;;;;;;8.65;5.85;;;;;;;13.57;50.72;100615.31;3594599;39;20032;-60
2021/06/02 01:22:44;;;;;;;10.10;6.25;;;;;;;13.57;51.03;100615.31;3594352;39;20094;-60
2021/06/02 01:25:14;;;;;;;10.73;6.90;;;;;;;13.55;51.02;100625.06;3595361;39;20036;-60
2021/06/02 01:27:41;;;;;;;11.95;7.13;;;;;;;13.52;51.16;100619.06;3595216;39;20082;-59
2021/06/02 01:30:09;;;;;;;11.18;6.15;;;;;;;13.51;51.04;100614.72;3595895;39;20500;-58
2021/06/02 01:33:08;;;;;;;13.88;6.93;;;;;;;13.41;51.50;100622.19;3595359;39;20411;-58
2021/06/02 01:36:03;;;;;;;10.32;6.80;;;;;;;13.39;51.47;100619.63;3595493;39;20045;-59
2021/06/02 01:39:06;;;;;;;13.05;6.97;;;;;;;13.39;51.62;100616.13;3595697;39;20044;-64
2021/06/02 01:41:58;;;;;;;10.55;6.95;;;;;;;13.40;51.61;100615.22;3594146;39;20406;-60
2021/06/02 01:45:03;;;;;;;11.30;7.18;;;;;;;13.29;51.97;100630.63;3595911;39;20032;-60
2021/06/02 01:48:05;;;;;;;9.40;6.47;;;;;;;13.27;52.09;100629.81;3595262;39;20088;-60
2021/06/02 01:50:54;;;;;;;9.43;7.15;;;;;;;13.24;52.04;100624.69;3595833;39;20039;-59
2021/06/02 01:53:48;;;;;;;14.85;7.00;;;;;;;13.15;52.38;100631.19;3595454;39;20044;-60
2021/06/02 01:56:47;;;;;;;12.57;7.70;;;;;;;13.06;52.59;100627.16;3595342;39;20392;-60
2021/06/02 02:00:02;;;;;;;12.60;6.82;;;;;;;12.99;52.79;100628.34;3595940;39;20032;-61
2021/06/02 02:03:00;;;;;;;11.73;6.97;;;;;;;12.97;52.99;100638.09;3605172;39;20039;-60
2021/06/02 02:06:11;;;;;;;9.68;6.95;;;;;;;12.86;53.30;100637.66;3605562;39;20039;-60
2021/06/02 02:08:54;;;;;;;14.68;7.30;;;;;;;12.85;53.27;100643.84;3585840;39;20043;-60
2021/06/02 02:11:40;;;;;;;9.02;7.38;;;;;;;12.74;53.63;100638.19;3605214;39;20055;-60
2021/06/02 02:14:43;;;;;;;10.05;7.43;;;;;;;12.69;53.79;100633.09;3605460;39;20417;-60
2021/06/02 02:17:41;;;;;;;10.98;7.43;;;;;;;12.65;53.96;100628.03;3589786;39;20264;-60
2021/06/02 02:20:17;;;;;;;13.68;7.55;;;;;;;12.68;53.73;100631.38;3605332;39;20388;-60
2021/06/02 02:23:12;;;;;;;11.45;8.32;;;;;;;12.61;54.04;100637.81;3606173;39;20083;-59
2021/06/02 02:25:53;;;;;;;14.10;7.38;;;;;;;12.61;53.84;100640.44;3605147;39;20092;-60
2021/06/02 02:28:50;;;;;;;12.88;7.65;;;;;;;12.57;54.19;100643.28;3604380;39;20042;-59
2021/06/02 02:31:44;;;;;;;13.63;8.23;;;;;;;12.59;53.92;100647.56;3605474;39;20396;-59
2021/06/02 02:34:34;;;;;;;10.27;7.75;;;;;;;12.60;54.01;100651.88;3604129;39;20499;-59
2021/06/02 02:37:05;;;;;;;12.13;7.45;;;;;;;12.63;54.01;100651.75;3605695;39;20298;-59
2021/06/02 02:39:42;;;;;;;11.35;7.18;;;;;;;12.63;54.12;100653.53;3605599;39;20043;-60
2021/06/02 02:42:20;;;;;;;11.57;7.70;;;;;;;12.63;54.19;100658.81;3605375;39;20039;-60
2021/06/02 02:45:04;;;;;;;11.15;7.78;;;;;;;12.59;54.19;100654.59;3605135;39;20043;-58
2021/06/02 02:47:36;;;;;;;11.27;7.72;;;;;;;12.68;54.33;100667.34;3605139;39;20036;-59
2021/06/02 02:50:10;;;;;;;;;;;;;;;12.76;53.50;100658.25;3605841;39;20046;-60
2021/06/02 02:52:50;;;;;;;12.95;8.45;;;;;;;12.74;53.63;100657.47;3604936;39;19939;-62
2021/06/02 02:55:27;;;;;;;11.60;7.50;;;;;;;12.73;53.70;100660.16;3605118;39;20125;-61
2021/06/02 02:58:01;;;;;;;15.02;7.93;;;;;;;12.73;53.74;100670.69;3605027;39;20040;-61
2021/06/02 03:00:36;;;;;;;9.90;7.50;;;;;;;12.71;53.97;100675.16;3606798;39;20047;-59
2021/06/02 03:03:09;;;;;;;10.65;8.02;;;;;;;12.73;53.93;100676.78;3605737;39;20039;-59
2021/06/02 03:05:48;;;;;;;14.02;7.70;;;;;;;12.75;53.85;100668.84;3606307;39;20121;-60
2021/06/02 03:08:22;;;;;;;10.38;7.55;;;;;;;12.79;53.72;100670.41;3606697;39;20110;-61
2021/06/02 03:10:58;;;;;;;12.27;7.32;;;;;;;12.81;53.62;100673.84;3606767;39;20047;-61
2021/06/02 03:13:32;;;;;;;11.75;7.00;;;;;;;12.86;53.51;100679.75;3606834;39;20031;-61
2021/06/02 03:16:09;;;;;;;12.77;7.47;;;;;;;12.91;53.42;100677.81;3606801;39;20043;-61
2021/06/02 03:18:46;;;;;;;17.40;8.02;;;;;;;12.97;53.31;100677.56;3605763;39;20043;-60
2021/06/02 03:21:30;;;;;;;14.13;8.95;;;;;;;13.01;53.53;100687.03;3605423;39;20050;-61
2021/06/02 03:24:09;;;;;;;14.35;8.20;;;;;;;13.10;53.27;100676.13;3606875;39;20144;-61
2021/06/02 03:26:40;;;;;;;13.27;8.50;;;;;;;13.20;53.09;100684.53;3605147;39;20396;-60
2021/06/02 03:29:16;;;;;;;;;;;;;;;13.32;52.73;100685.78;3607502;39;20034;-60
2021/06/02 03:32:01;;;;;;;13.80;7.88;;;;;;;13.39;52.21;100690.72;3606488;39;19944;-59
2021/06/02 03:34:32;;;;;;;14.82;7.72;;;;;;;13.50;52.13;100692.03;3606905;39;20065;-60
2021/06/02 03:37:06;;;;;;;14.15;7.50;;;;;;;13.56;51.72;100702.31;3606653;39;20036;-60
2021/06/02 03:39:58;;;;;;;15.43;7.15;;;;;;;13.59;51.89;100704.81;3607058;39;20028;-59
2021/06/02 03:42:45;;;;;;;11.98;7.20;;;;;;;13.75;51.62;100699.75;3605025;39;20369;-60
2021/06/02 03:45:29;;;;;;;16.13;8.02;;;;;;;13.84;51.53;100704.59;3606235;39;20043;-58
2021/06/02 03:48:09;;;;;;;15.25;8.00;;;;;;;13.90;51.26;100704.31;3606239;39;20036;-60
2021/06/02 03:50:49;;;;;;;10.50;7.47;;;;;;;13.99;50.94;100698.63;3606667;39;20035;-57
2021/06/02 03:53:32;;;;;;;13.40;8.10;;;;;;;14.08;50.87;100708.75;3606269;39;20466;-58
2021/06/02 03:56:15;;;;;;;11.02;7.20;;;;;;;14.07;51.01;100709.69;3605201;39;20277;-59
2021/06/02 03:58:52;;;;;;;12.20;6.70;;;;;;;14.05;51.44;100706.25;3606355;39;20093;-57
2021/06/02 04:01:28;;;;;;;11.93;7.70;;;;;;;14.05;51.56;100703.63;3606227;39;20043;-58
2021/06/02 04:04:20;;;;;;;12.38;7.25;;;;;;;13.99;51.70;100707.41;3606709;39;20043;-58
2021/06/02 04:06:53;;;;;;;11.25;7.90;;;;;;;14.11;51.42;100708.59;3606148;39;20534;-58
2021/06/02 04:09:28;;;;;;;9.73;7.43;;;;;;;14.18;51.60;100704.78;3606616;39;20108;-57
2021/06/02 04:12:06;;;;;;;11.05;8.43;;;;;;;14.32;51.05;100707.63;3605778;39;20063;-59
2021/06/02 04:14:35;;;;;;;16.00;9.25;;;;;;;14.63;50.50;100706.22;3606456;39;20465;-56
2021/06/02 04:17:02;;;;;;;13.57;9.13;;;;;;;15.68;48.34;100702.75;3606905;39;20047;-58
2021/06/02 04:19:31;;;;;;;16.98;8.63;;;;;;;16.96;45.75;100701.00;3606400;39;20406;-58
2021/06/02 04:22:04;;;;;;;14.00;8.25;;;;;;;17.48;44.67;100703.25;3605151;39;20047;-60
2021/06/02 04:24:34;;;;;;;11.05;8.40;;;;;;;17.45;44.79;100714.03;3606454;39;20258;-60
2021/06/02 04:27:04;;;;;;;11.15;7.80;;;;;;;17.51;44.79;100716.34;3606503;39;20125;-60
2021/06/02 04:29:32;;;;;;;9.48;7.20;;;;;;;17.50;45.01;100717.28;3606472;39;20398;-51
2021/06/02 04:32:01;;;;;;;11.38;7.40;;;;;;;17.88;44.54;100718.47;3606589;39;20040;-60
2021/06/02 04:34:29;;;;;;;12.25;7.40;;;;;;;18.19;44.07;100721.91;3605431;39;20046;-58
2021/06/02 04:36:58;;;;;;;13.68;7.13;;;;;;;18.23;43.85;100726.06;3605897;39;20044;-59
2021/06/02 04:39:26;;;;;;;11.57;6.95;;;;;;;18.11;44.56;100718.84;3606204;39;20035;-53
2021/06/02 04:41:56;;;;;;;10.38;7.53;;;;;;;18.05;45.04;100733.38;3605193;39;20072;-51
2021/06/02 04:44:25;;;;;;;14.27;6.88;;;;;;;18.03;45.81;100734.41;3604748;39;20141;-52
2021/06/02 04:46:52;;;;;;;11.63;6.60;;;;;;;18.03;45.07;100742.38;3600046;39;20036;-57
2021/06/02 04:49:19;;;;;;;8.35;6.40;;;;;;;18.05;44.05;100745.78;3599928;39;20042;-59
2021/06/02 04:52:25;;;;;;;11.75;7.00;;;;;;;18.53;43.15;100737.44;3595787;40;20038;-57
2021/06/02 04:55:20;;;;;;;12.80;6.72;;;;;;;18.71;43.08;100747.81;3595509;39;20418;-53
2021/06/02 04:58:13;;;;;;;11.18;7.18;;;;;;;18.47;44.04;100750.22;3602969;39;20050;-58
2021/06/02 05:01:06;;;;;;;11.35;6.70;;;;;;;18.35;43.91;100743.88;3603424;39;20036;-57
2021/06/02 05:04:21;;;;;;;11.27;5.88;;;;;;;18.28;42.11;100748.72;3601828;39;20113;-60
2021/06/02 05:07:05;;;;;;;11.90;6.07;;;;;;;18.34;41.57;100747.50;3605799;39;20042;-59
2021/06/02 05:10:03;;;;;;;9.60;6.07;;;;;;;18.30;41.60;100751.25;3604227;39;20363;-60
2021/06/02 05:13:07;;;;;;;8.68;6.30;;;;;;;18.27;40.88;100762.06;3604075;39;20065;-60
2021/06/02 05:16:02;;;;;;;7.55;6.10;;;;;;;18.33;40.54;100756.41;3605936;39;20036;-59
2021/06/02 05:19:15;;;;;;;16.77;6.75;;;;;;;18.45;40.34;100758.28;3603897;39;20040;-60
2021/06/02 05:22:13;;;;;;;9.23;5.82;;;;;;;18.54;40.78;100760.38;3587578;39;20056;-54
2021/06/02 05:25:32;;;;;;;10.20;6.18;;;;;;;18.53;40.50;100763.97;3604815;39;20044;-61
2021/06/02 05:28:33;;;;;;;10.27;5.85;;;;;;;19.10;40.04;100763.84;3599034;39;20040;-66
2021/06/02 05:31:30;;;;;;;8.35;6.55;;;;;;;19.13;40.35;100760.97;3578491;39;20103;-67
2021/06/02 05:34:35;;;;;;;10.77;6.38;;;;;;;18.97;41.33;100760.31;3600223;39;20523;-66
2021/06/02 05:37:32;;;;;;;10.13;6.40;;;;;;;19.05;41.22;100768.63;3599136;39;20120;-65
2021/06/02 05:40:24;;;;;;;9.48;6.30;;;;;;;19.10;41.54;100768.31;3597784;39;20084;-64
2021/06/02 05:43:23;;;;;;;13.68;8.75;;;;;;;19.24;41.61;100770.91;3599021;39;20039;-67
2021/06/02 05:46:20;;;;;;;9.50;6.60;;;;;;;19.46;40.79;100776.50;3588482;39;20051;-67
2021/06/02 05:49:14;;;;;;;13.63;8.48;;;;;;;19.52;40.48;100780.56;3589971;39;20050;-69
2021/06/02 05:51:55;;;;;;;12.30;7.20;;;;;;;19.50;40.49;100780.66;3595868;39;20044;-68
2021/06/02 05:55:04;;;;;;;10.87;6.40;;;;;;;19.59;40.38;100787.22;3602794;39;20040;-68
2021/06/02 05:57:58;;;;;;;8.35;6.50;;;;;;;19.63;40.61;100788.72;3598032;39;20361;-65
2021/06/02 06:01:08;;;;;;;8.25;6.10;;;;;;;19.86;39.93;100787.16;3603156;39;20051;-66
2021/06/02 06:03:56;;;;;;;11.30;5.93;;;;;;;20.35;39.22;100787.25;3600458;39;20402;-66
2021/06/02 06:06:30;;;;;;;13.32;7.05;;;;;;;21.35;38.06;100782.75;3604841;39;20065;-66
2021/06/02 06:09:43;;;;;;;12.75;6.35;;;;;;;24.65;33.11;100767.28;3606483;39;20044;-63
2021/06/02 06:12:47;;;;;;;9.90;6.38;;;;;;;27.53;28.24;100764.81;3600631;39;20055;-62
2021/06/02 06:15:46;;;;;;;11.05;5.55;;;;;;;28.84;26.78;100764.59;3602246;39;20341;-61
2021/06/02 06:18:41;;;;;;;7.05;5.57;;;;;;;31.45;23.75;100766.75;3601270;39;20402;-61
2021/06/02 06:21:43;;;;;;;7.95;5.30;;;;;;;33.52;20.92;100760.16;3604539;39;20031;-62
2021/06/02 06:24:13;;;;;;;9.15;5.70;;;;;;;35.84;17.73;100753.03;3595100;39;20054;-61
2021/06/02 06:26:45;;;;;;;9.65;5.65;;;;;;;37.66;15.54;100741.63;3602245;39;20047;-57
2021/06/02 06:29:16;;;;;;;8.90;5.30;;;;;;;39.67;14.09;100757.00;3601394;39;20042;-60
2021/06/02 06:31:47;;;;;;;10.85;5.30;;;;;;;39.92;13.06;100757.59;3599513;39;20050;-60
2021/06/02 06:34:16;;;;;;;;;;;;;;;38.13;16.47;100760.13;3604474;39;20043;-66
2021/06/02 06:36:48;;;;;;;8.95;4.53;;;;;;;37.81;14.61;100772.25;3606831;39;20274;-65
2021/06/02 06:39:23;;;;;;;7.28;4.47;;;;;;;40.77;11.96;100763.31;3604729;39;20051;-61
2021/06/02 06:41:52;;;;;;;6.07;4.57;;;;;;;37.69;13.71;100774.88;3603243;39;20171;-61
2021/06/02 06:44:20;;;;;;;11.15;5.45;;;;;;;34.71;16.07;100785.47;3602184;39;20051;-60
2021/06/02 06:46:48;;;;;;;9.80;4.85;;;;;;;32.46;18.03;100785.25;3601635;39;20419;-60
2021/06/02 06:49:16;;;;;;;14.35;6.53;;;;;;;30.62;20.53;100787.22;3603797;39;20846;-65
2021/06/02 06:51:52;;;;;;;8.55;4.93;;;;;;;29.22;21.77;100797.44;3603939;39;20078;-59
2021/06/02 06:54:21;;;;;;;8.43;5.10;;;;;;;27.85;23.46;100799.25;3604432;39;20133;-59
2021/06/02 06:56:50;;;;;;;7.63;4.88;;;;;;;27.13;24.28;100804.81;3604304;39;20295;-59
2021/06/02 06:59:18;;;;;;;10.25;5.70;;;;;;;26.92;24.54;100808.59;3606785;39;20051;-60
2021/06/02 07:01:46;;;;;;;9.73;6.05;;;;;;;27.01;24.35;100805.03;3606992;39;20024;-59
2021/06/02 07:04:14;;;;;;;9.90;6.32;;;;;;;27.10;24.19;100807.81;3607243;39;20358;-60
2021/06/02 07:06:45;;;;;;;12.38;6.00;;;;;;;27.00;24.70;100799.78;3606489;39;20112;-57
2021/06/02 07:09:12;;;;;;;11.18;5.28;;;;;;;26.92;24.90;100807.75;3607292;39;20036;-54
2021/06/02 07:11:41;;;;;;;8.57;6.47;;;;;;;27.08;24.29;100807.97;3602462;39;20039;-57
2021/06/02 07:14:11;;;;;;;13.73;6.70;;;;;;;27.01;24.39;100806.88;3604953;39;20062;-57
2021/06/02 07:16:40;;;;;;;11.85;6.03;;;;;;;26.88;24.71;100809.06;3605566;39;20035;-54
2021/06/02 07:19:08;;;;;;;9.38;6.00;;;;;;;26.88;25.19;100806.38;3605657;39;20046;-58
2021/06/02 07:21:39;;;;;;;10.25;6.18;;;;;;;27.04;24.76;100814.63;3607801;39;20047;-60
2021/06/02 07:24:09;;;;;;;14.07;6.18;;;;;;;31.43;20.46;100801.28;3602134;39;20051;-60
2021/06/02 07:26:36;;;;;;;12.98;6.13;;;;;;;36.51;15.68;100798.22;3600853;39;20052;-60
2021/06/02 07:29:08;;;;;;;13.85;6.60;;;;;;;38.33;13.90;100791.97;3606023;39;20036;-60
2021/06/02 07:31:35;;;;;;;10.48;5.53;;;;;;;40.92;12.05;100784.81;3604381;39;20113;-60
2021/06/02 07:34:02;;;;;;;12.63;5.43;;;;;;;43.18;10.60;100792.31;3603553;39;20220;-60
2021/06/02 07:36:29;;;;;;;8.75;5.70;;;;;;;44.04;9.89;100788.59;3597779;39;20098;-60
2021/06/02 07:38:56;;;;;;;8.82;5.22;;;;;;;44.35;9.56;100797.91;3606089;39;20050;-60
2021/06/02 07:41:24;;;;;;;7.53;5.00;;;;;;;43.85;10.31;100790.16;3602500;39;20390;-59
2021/06/02 07:43:51;;;;;;;8.50;5.03;;;;;;;43.04;10.66;100795.75;3603678;39;20043;-60
2021/06/02 07:46:18;;;;;;;5.60;4.57;;;;;;;41.92;10.67;100802.53;3604452;39;20091;-59
2021/06/02 07:48:45;;;;;;;9.00;4.80;;;;;;;42.44;10.72;100804.91;3605075;39;20333;-58
2021/06/02 07:51:12;;;;;;;7.85;4.30;;;;;;;43.11;10.08;100808.25;3604052;39;20032;-60
2021/06/02 07:53:39;;;;;;;7.32;4.45;;;;;;;42.18;9.93;100814.78;3604485;39;20047;-59
2021/06/02 07:56:06;;;;;;;7.43;4.10;;;;;;;41.08;11.30;100813.44;3603004;39;20052;-59
2021/06/02 07:58:34;;;;;;;8.77;4.63;;;;;;;39.92;12.06;100807.84;3601903;39;20036;-58
2021/06/02 08:01:01;;;;;;;5.38;4.15;;;;;;;39.12;12.22;100818.41;3602854;39;20044;-59
2021/06/02 08:03:28;;;;;;;10.85;3.92;;;;;;;37.88;12.87;100822.28;3603660;39;20042;-59
2021/06/02 08:05:55;;;;;;;5.63;3.95;;;;;;;36.67;13.53;100824.22;3602426;39;20036;-60
2021/06/02 08:08:22;;;;;;;5.63;4.10;;;;;;;38.36;12.13;100808.78;3603607;39;20051;-60
2021/06/02 08:10:48;;;;;;;9.55;4.63;;;;;;;37.35;13.40;100803.53;3602824;39;20040;-61
2021/06/02 08:13:16;;;;;;;5.97;4.65;;;;;;;35.24;15.03;100810.19;3602086;39;20047;-60
2021/06/02 08:15:44;;;;;;;7.43;5.13;;;;;;;36.61;14.36;100810.38;3602894;39;20036;-59
2021/06/02 08:18:12;;;;;;;5.97;4.95;;;;;;;35.36;15.35;100814.00;3603681;39;20050;-60
2021/06/02 08:20:38;;;;;;;10.00;6.35;;;;;;;33.29;16.66;100811.13;3604456;39;20028;-62
2021/06/02 08:23:06;;;;;;;9.23;5.05;;;;;;;31.83;18.06;100813.69;3601538;39;20133;-60
2021/06/02 08:25:34;;;;;;;7.85;5.20;;;;;;;30.50;19.28;100818.31;3603122;39;20040;-60
2021/06/02 08:28:01;;;;;;;9.40;5.47;;;;;;;29.84;20.58;100824.84;3603883;39;20128;-59
2021/06/02 08:30:30;;;;;;;8.20;4.47;;;;;;;29.32;20.85;100825.09;3601906;39;20059;-58
2021/06/02 08:32:58;;;;;;;8.65;4.00;;;;;;;29.00;20.98;100830.44;3602192;39;20383;-59
2021/06/02 08:35:27;;;;;;;6.20;4.15;;;;;;;28.98;20.81;100832.47;3599674;39;20047;-57
2021/06/02 08:37:57;;;;;;;8.80;4.72;;;;;;;28.98;20.65;100827.06;3603434;39;20035;-57
2021/06/02 08:40:26;;;;;;;7.72;4.30;;;;;;;28.68;20.95;100831.97;3603876;39;20132;-58
2021/06/02 08:42:52;;;;;;;6.53;4.25;;;;;;;28.34;21.37;100834.69;3601628;39;20040;-56
2021/06/02 08:45:20;;;;;;;7.15;4.78;;;;;;;28.07;21.72;100832.09;3603585;39;20036;-55
2021/06/02 08:47:48;;;;;;;5.05;4.20;;;;;;;28.39;21.31;100831.50;3604491;39;20485;-50
2021/06/02 08:50:20;;;;;;;9.00;4.70;;;;;;;29.20;20.37;100829.16;3606236;39;20426;-57
2021/06/02 08:52:47;;;;;;;9.15;4.28;;;;;;;33.29;16.71;100822.84;3601345;39;20085;-59
2021/06/02 08:55:16;;;;;;;8.25;4.50;;;;;;;38.25;12.59;100806.78;3604495;39;20032;-59
2021/06/02 08:57:46;;;;;;;7.60;4.72;;;;;;;35.22;13.83;100820.47;3602778;39;20043;-60
2021/06/02 09:00:15;;;;;;;4.67;2.90;;;;;;;32.03;15.14;100814.00;3603439;39;20040;-60
2021/06/02 09:02:44;;;;;;;5.25;2.33;;;;;;;30.73;15.49;100820.31;3601098;39;20044;-61
2021/06/02 09:05:12;;;;;;;6.32;2.40;;;;;;;30.01;15.27;100821.13;3601794;39;20046;-60
2021/06/02 09:07:41;;;;;;;4.28;2.90;;;;;;;30.61;15.20;100823.41;3603124;39;20048;-69
2021/06/02 09:10:11;;;;;;;5.97;2.90;;;;;;;34.60;12.38;100816.00;3601653;39;20036;-71
2021/06/02 09:12:39;;;;;;;3.67;2.77;;;;;;;37.81;10.15;100805.09;3601792;39;20047;-63
2021/06/02 09:15:09;;;;;;;4.78;2.78;;;;;;;38.02;9.92;100803.84;3601817;39;20105;-63
2021/06/02 09:17:57;;;;;;;10.27;3.00;;;;;;;34.61;11.44;100814.13;3602422;39;20293;-62
2021/06/02 09:20:38;;;;;;;6.18;2.60;;;;;;;31.78;13.35;100818.81;3600643;39;20143;-70
2021/06/02 09:23:28;;;;;;;3.17;2.47;;;;;;;30.48;14.74;100817.66;3601053;39;20050;-69
2021/06/02 09:26:11;;;;;;;3.42;2.58;;;;;;;30.31;15.75;100816.84;3603282;39;20047;-69
2021/06/02 09:29:22;;;;;;;3.47;2.53;;;;;;;31.26;15.32;100818.69;3602148;39;20059;-69
2021/06/02 09:31:50;;;;;;;4.43;2.63;;;;;;;31.81;14.81;100811.16;3599154;39;20040;-69
2021/06/02 09:34:19;;;;;;;4.63;2.90;;;;;;;32.49;14.33;100816.63;3602749;39;20039;-65
2021/06/02 09:36:47;;;;;;;3.20;2.75;;;;;;;33.21;13.63;100808.53;3603591;39;20441;-68
2021/06/02 09:39:17;;;;;;;3.80;2.80;;;;;;;32.18;14.34;100795.88;3602961;39;20046;-67
2021/06/02 09:41:47;;;;;;;4.72;2.95;;;;;;;31.43;15.13;100799.41;3601868;39;20116;-67
2021/06/02 09:44:16;;;;;;;2.93;2.60;;;;;;;30.85;15.32;100808.06;3601776;39;20063;-68
2021/06/02 09:47:04;;;;;;;3.65;2.97;;;;;;;30.55;16.08;100799.69;3602312;39;20097;-66
2021/06/02 09:49:46;;;;;;;10.02;3.58;;;;;;;31.20;15.93;100798.56;3601037;39;20043;-67
2021/06/02 09:52:13;;;;;;;4.95;3.00;;;;;;;31.18;15.62;100798.75;3605758;39;20043;-66
2021/06/02 09:54:41;;;;;;;8.38;3.05;;;;;;;30.97;15.13;100809.34;3600671;39;20052;-66
2021/06/02 09:57:11;;;;;;;3.53;2.47;;;;;;;31.10;15.96;100806.91;3604553;39;20048;-67
2021/06/02 09:59:53;;;;;;;7.13;3.03;;;;;;;30.90;15.81;100811.09;3600793;39;20036;-64
2021/06/02 10:02:20;;;;;;;5.65;3.63;;;;;;;30.51;15.87;100813.75;3604416;39;20621;-64
2021/06/02 10:04:58;;;;;;;7.18;2.85;;;;;;;29.93;16.34;100804.91;3600960;39;20051;-62
2021/06/02 10:07:26;;;;;;;6.43;3.15;;;;;;;29.53;16.87;100815.72;3600098;39;20069;-65
2021/06/02 10:09:56;;;;;;;4.30;2.60;;;;;;;29.13;17.32;100807.34;3603279;39;20042;-64
2021/06/02 10:12:24;;;;;;;6.13;3.15;;;;;;;29.09;16.78;100800.59;3603032;39;20070;-63
2021/06/02 10:14:56;;;;;;;4.40;3.13;;;;;;;29.48;16.94;100801.88;3600253;39;20040;-65
2021/06/02 10:17:28;;;;;;;4.18;2.40;;;;;;;29.33;17.22;100798.94;3598494;39;20038;-64
2021/06/02 10:19:56;;;;;;;7.82;2.80;;;;;;;29.35;17.75;100800.47;3604400;39;20044;-65
2021/06/02 10:22:25;;;;;;;7.80;3.03;;;;;;;29.65;17.98;100806.28;3601764;39;20085;-64
2021/06/02 10:24:56;;;;;;;3.53;2.70;;;;;;;29.54;16.95;100798.50;3601770;39;20067;-63
2021/06/02 10:27:23;;;;;;;5.47;3.25;;;;;;;29.55;16.86;100792.91;3604013;39;20059;-63
2021/06/02 10:29:51;;;;;;;4.07;2.70;;;;;;;29.42;17.80;100804.22;3600216;39;20052;-63
2021/06/02 10:32:19;;;;;;;5.35;3.42;;;;;;;28.94;17.40;100810.34;3600159;39;20055;-64
2021/06/02 10:34:47;;;;;;;3.03;2.55;;;;;;;28.28;17.68;100813.72;3604075;39;20039;-66
2021/06/02 10:37:17;;;;;;;5.05;2.97;;;;;;;27.80;18.92;100804.28;3604829;39;20046;-66
2021/06/02 10:39:51;;;;;;;5.30;2.60;;;;;;;27.76;18.49;100813.69;3602374;39;20299;-64
2021/06/02 10:42:22;;;;;;;6.57;2.80;;;;;;;27.93;18.64;100804.72;3600488;39;20044;-67
2021/06/02 10:44:54;;;;;;;6.00;2.80;;;;;;;28.08;17.96;100794.19;3600205;39;20410;-66
2021/06/02 10:47:23;;;;;;;4.30;2.53;;;;;;;28.20;18.38;100805.56;3600699;39;20434;-65
2021/06/02 10:49:50;;;;;;;5.13;3.10;;;;;;;28.21;18.05;100807.25;3603459;39;20043;-64
2021/06/02 10:52:35;;;;;;;3.25;2.60;;;;;;;28.31;17.97;100807.16;3601027;39;20120;-64
2021/06/02 10:55:35;;;;;;;3.22;2.60;;;;;;;27.75;18.66;100805.75;3601037;39;20049;-66
2021/06/02 10:58:25;;;;;;;3.00;2.40;;;;;;;27.48;19.53;100803.97;3602473;39;20039;-65
2021/06/02 11:00:53;;;;;;;6.90;3.00;;;;;;;27.30;19.47;100812.06;3601322;39;20333;-65
2021/06/02 11:03:22;;;;;;;3.08;2.50;;;;;;;26.70;20.15;100814.38;3600632;39;20040;-64
2021/06/02 11:06:19;;;;;;;6.03;3.20;;;;;;;26.40;20.72;100812.78;3603134;39;20043;-65
2021/06/02 11:09:11;;;;;;;9.25;3.25;;;;;;;26.56;20.64;100813.03;3599968;39;20356;-66
2021/06/02 11:11:40;;;;;;;7.75;3.38;;;;;;;26.76;19.97;100810.25;3598843;39;20116;-65
2021/06/02 11:14:28;;;;;;;3.80;2.80;;;;;;;26.94;19.96;100817.38;3601763;39;20495;-65
2021/06/02 11:17:02;;;;;;;4.38;2.70;;;;;;;27.25;19.87;100817.03;3599794;39;20048;-65
2021/06/02 11:19:36;;;;;;;3.33;2.53;;;;;;;27.51;19.60;100817.16;3600881;39;20056;-67
2021/06/02 11:22:06;;;;;;;3.55;2.60;;;;;;;27.54;19.54;100820.38;3604129;39;20061;-68
2021/06/02 11:24:40;;;;;;;4.18;3.15;;;;;;;27.62;19.90;100815.06;3606872;39;20036;-67
2021/06/02 11:27:40;;;;;;;5.22;2.80;;;;;;;27.64;20.18;100818.47;3606863;39;20035;-66
2021/06/02 11:30:21;;;;;;;6.43;3.17;;;;;;;27.74;20.05;100817.53;3606896;39;20036;-66
2021/06/02 11:33:14;;;;;;;5.55;2.85;;;;;;;27.43;20.26;100823.28;3605157;39;20097;-65
2021/06/02 11:36:05;;;;;;;7.15;2.67;;;;;;;26.92;20.72;100813.13;3607016;39;20039;-65
2021/06/02 11:38:33;;;;;;;4.28;2.95;;;;;;;27.00;20.53;100824.00;3607071;39;20036;-65
2021/06/02 11:41:00;;;;;;;8.55;4.60;;;;;;;26.94;21.05;100820.06;3606488;39;20446;-64
2021/06/02 11:43:28;;;;;;;3.78;2.67;;;;;;;26.72;21.00;100828.53;3606757;39;20046;-69
2021/06/02 11:45:59;;;;;;;3.83;2.83;;;;;;;26.51;21.20;100822.53;3606933;39;20034;-66
2021/06/02 11:48:32;;;;;;;6.97;3.25;;;;;;;26.54;20.75;100824.94;3606362;39;20040;-65
2021/06/02 11:51:06;;;;;;;4.45;2.70;;;;;;;26.73;20.35;100819.47;3606569;39;20028;-66
2021/06/02 11:54:27;;;;;;;3.83;2.47;;;;;;;26.42;20.73;100821.56;3606758;39;20036;-66
2021/06/02 11:57:22;;;;;;;4.55;2.65;;;;;;;26.18;20.87;100819.34;3605041;39;20040;-65
2021/06/02 12:00:16;;;;;;;2.60;2.40;;;;;;;25.59;21.58;100817.69;3606396;39;20048;-66
2021/06/02 12:03:09;;;;;;;7.13;3.08;;;;;;;25.02;22.65;100818.50;3606356;39;20417;-65
2021/06/02 12:05:49;;;;;;;2.90;2.60;;;;;;;24.63;23.15;100824.56;3606425;39;20403;-66
2021/06/02 12:08:22;;;;;;;3.25;2.72;;;;;;;24.27;23.86;100822.38;3606416;39;20071;-64